Time;durP1;ratioP1;P1;durP2;ratioP2;P2;SDS_P1;SDS_P2;PMS_P1;PMS_P2;Temp;Humidity;BMP_temperature;BMP_pressure;BME280_temperature;BME280_humidity;BME280_pressure;Samples;Min_cycle;Max_cycle;Signal;HPM_P1;HPM_P2
2022/09/03 00:00:16;;;;;;;;;;;;;;;16.14;57.25;96505.53;30001;983;1876;-59
2022/09/03 00:00:51;;;;;;;;;;;;;;;16.15;57.89;96498.91;30001;983;1876;-62
2022/09/03 00:01:25;;;;;;;;;;;;;;;16.12;58.45;96511.31;30001;983;1881;-61
2022/09/03 00:02:01;;;;;;;;;;;;;;;16.08;57.93;96500.25;30001;983;1855;-60
2022/09/03 00:02:48;;;;;;;;;;;;;;;16.08;58.17;96504.94;30001;982;1877;-61
2022/09/03 00:03:26;;;;;;;;;;;;;;;16.07;58.44;96504.13;30001;982;1877;-61
2022/09/03 00:04:01;;;;;;;;;;;;;;;16.05;58.25;96503.66;30001;982;1881;-61
2022/09/03 00:04:36;;;;;;;;;;;;;;;16.04;58.42;96499.31;30001;982;1877;-61
2022/09/03 00:05:11;;;;;;;;;;;;;;;16.03;58.18;96503.19;30001;982;1882;-61
2022/09/03 00:05:47;;;;;;;;;;;;;;;16.05;58.41;96500.13;30001;983;1876;-62
2022/09/03 00:06:34;;;;;;;;;;;;;;;16.04;58.23;96504.78;30001;983;1880;-62
2022/09/03 00:07:15;;;;;;;;;;;;;;;16.04;58.29;96498.53;30001;983;1854;-61
2022/09/03 00:08:14;;;;;;;;;;;;;;;16.03;58.11;96495.00;30001;983;1876;-61
2022/09/03 00:09:05;;;;;;;;;;;;;;;16.08;58.01;96500.25;30001;983;1872;-62
2022/09/03 00:09:52;;;;;;;;;;;;;;;16.09;57.78;96501.06;30001;983;1876;-61
2022/09/03 00:10:36;;;;;;;;;;;;;;;16.08;58.31;96497.50;30001;982;1877;-61
2022/09/03 00:11:17;;;;;;;;;;;;;;;16.07;57.95;96495.13;30001;982;1881;-60
2022/09/03 00:12:23;;;;;;;;;;;;;;;16.06;58.17;96497.06;30001;982;1877;-61
2022/09/03 00:12:59;;;;;;;;;;;;;;;16.07;58.08;96489.63;30001;983;1854;-61
2022/09/03 00:13:33;;;;;;;;;;;;;;;16.07;57.93;96495.91;30001;983;1872;-60
2022/09/03 00:14:10;;;;;;;;;;;;;;;16.08;57.78;96494.78;30001;983;1880;-61
2022/09/03 00:14:45;;;;;;;;;;;;;;;16.09;58.05;96490.91;30001;983;1876;-60
2022/09/03 00:15:18;;;;;;;;;;;;;;;16.08;57.77;96489.31;30001;983;1881;-60
2022/09/03 00:15:50;;;;;;;;;;;;;;;16.11;57.28;96487.03;30001;983;1876;-62
2022/09/03 00:16:23;;;;;;;;;;;;;;;16.12;56.81;96488.63;30001;988;1881;-62
2022/09/03 00:16:59;;;;;;;;;;;;;;;16.12;56.89;96488.63;30001;983;1877;-60
2022/09/03 00:17:59;;;;;;;;;;;;;;;16.14;56.91;96486.34;30001;982;1881;-61
2022/09/03 00:18:31;;;;;;;;;;;;;;;16.15;57.30;96494.22;30001;982;1850;-62
2022/09/03 00:19:03;;;;;;;;;;;;;;;16.15;57.31;96494.22;30001;982;1877;-62
2022/09/03 00:19:36;;;;;;;;;;;;;;;16.17;57.55;96493.91;30001;982;1877;-61
2022/09/03 00:20:11;;;;;;;;;;;;;;;16.17;57.23;96491.16;30001;983;1880;-61
2022/09/03 00:20:45;;;;;;;;;;;;;;;16.18;57.55;96496.28;30001;983;1876;-60
2022/09/03 00:21:17;;;;;;;;;;;;;;;16.19;57.38;96494.34;30001;983;1880;-61
2022/09/03 00:21:56;;;;;;;;;;;;;;;16.20;57.70;96494.03;30001;983;1876;-61
2022/09/03 00:22:31;;;;;;;;;;;;;;;16.20;57.48;96490.47;30001;983;1880;-60
2022/09/03 00:23:07;;;;;;;;;;;;;;;16.21;57.49;96492.88;30001;983;1876;-59
2022/09/03 00:23:41;;;;;;;;;;;;;;;16.21;57.76;96494.81;30001;983;1859;-61
2022/09/03 00:24:13;;;;;;;;;;;;;;;16.22;57.55;96499.97;30001;983;1872;-60
2022/09/03 00:24:45;;;;;;;;;;;;;;;16.21;57.88;96492.09;30001;983;1881;-62
2022/09/03 00:25:23;;;;;;;;;;;;;;;16.20;57.83;96487.75;30001;982;1877;-61
2022/09/03 00:26:17;;;;;;;;;;;;;;;16.20;57.75;96488.53;30001;982;1881;-62
2022/09/03 00:26:55;;;;;;;;;;;;;;;16.20;57.84;96487.75;30001;982;1873;-60
2022/09/03 00:27:27;;;;;;;;;;;;;;;16.21;56.97;96486.59;30001;982;1881;-61
2022/09/03 00:28:01;;;;;;;;;;;;;;;16.22;56.89;96478.06;30001;983;1876;-61
2022/09/03 00:28:43;;;;;;;;;;;;;;;16.22;56.60;96485.47;30001;983;1880;-59
2022/09/03 00:29:18;;;;;;;;;;;;;;;16.21;56.80;96490.16;30001;983;1854;-61
2022/09/03 00:29:56;;;;;;;;;;;;;;;16.22;56.93;96482.72;30001;983;1876;-61
2022/09/03 00:30:27;;;;;;;;;;;;;;;16.22;57.12;96488.22;30001;983;1876;-61
2022/09/03 00:31:20;;;;;;;;;;;;;;;16.22;56.90;96482.72;30001;983;1881;-60
2022/09/03 00:31:57;;;;;;;;;;;;;;;16.23;57.50;96493.34;30001;983;1872;-61
2022/09/03 00:32:46;;;;;;;;;;;;;;;16.22;57.35;96483.53;30001;983;1881;-61
2022/09/03 00:33:20;;;;;;;;;;;;;;;16.22;57.54;96483.53;30001;982;1868;-63
2022/09/03 00:33:52;;;;;;;;;;;;;;;16.24;57.50;96485.94;30001;982;1881;-59
2022/09/03 00:34:30;;;;;;;;;;;;;;;16.26;57.10;96486.41;30001;982;1855;-61
2022/09/03 00:35:03;;;;;;;;;;;;;;;16.26;56.61;96484.47;30001;982;1877;-61
2022/09/03 00:35:45;;;;;;;;;;;;;;;16.28;56.11;96478.66;30001;983;1876;-61
2022/09/03 00:36:22;;;;;;;;;;;;;;;16.29;56.05;96482.94;30001;983;1880;-62
2022/09/03 00:36:53;;;;;;;;;;;;;;;16.28;56.12;96481.38;30001;983;1876;-62
2022/09/03 00:37:24;;;;;;;;;;;;;;;16.29;56.22;96485.69;30001;981;1881;-62
2022/09/03 00:37:55;;;;;;;;;;;;;;;16.30;56.73;96490.03;30001;983;1876;-62
2022/09/03 00:38:28;;;;;;;;;;;;;;;16.30;56.52;96490.03;30001;983;1785;-63
2022/09/03 00:39:00;;;;;;;;;;;;;;;16.29;56.87;96488.44;30001;983;1877;-60
2022/09/03 00:39:31;;;;;;;;;;;;;;;16.29;56.68;96491.16;30001;983;1859;-60
2022/09/03 00:40:04;;;;;;;;;;;;;;;16.29;56.82;96496.66;30001;983;1872;-60
2022/09/03 00:41:09;;;;;;;;;;;;;;;16.29;56.96;96488.44;30001;982;1881;-60
2022/09/03 00:41:58;;;;;;;;;;;;;;;16.32;56.20;96487.75;30001;974;1890;-61
2022/09/03 00:42:50;;;;;;;;;;;;;;;16.32;56.29;96485.81;30001;982;1872;-61
2022/09/03 00:43:45;;;;;;;;;;;;;;;16.33;56.37;96483.88;30001;983;1876;-60
2022/09/03 00:44:38;;;;;;;;;;;;;;;16.33;56.60;96489.34;30001;983;1876;-62
2022/09/03 00:45:14;;;;;;;;;;;;;;;16.32;56.53;96487.75;30001;983;1850;-61
2022/09/03 00:46:04;;;;;;;;;;;;;;;16.30;57.18;96488.09;30001;983;1876;-60
2022/09/03 00:46:44;;;;;;;;;;;;;;;16.28;57.42;96481.38;30001;983;1876;-60
2022/09/03 00:47:23;;;;;;;;;;;;;;;16.28;57.26;96487.66;30001;982;1881;-59
2022/09/03 00:48:05;;;;;;;;;;;;;;;16.29;57.03;96488.44;30001;982;1877;-62
2022/09/03 00:48:44;;;;;;;;;;;;;;;16.26;56.81;96484.47;30001;982;1881;-60
2022/09/03 00:49:28;;;;;;;;;;;;;;;16.28;56.43;96479.44;30001;982;1877;-60
2022/09/03 00:50:11;;;;;;;;;;;;;;;16.30;55.87;96473.59;30001;982;1881;-62
2022/09/03 00:51:00;;;;;;;;;;;;;;;16.29;55.90;96472.00;30001;983;1854;-62
2022/09/03 00:51:37;;;;;;;;;;;;;;;16.29;56.06;96474.75;30001;983;1867;-62
2022/09/03 00:52:13;;;;;;;;;;;;;;;16.30;55.97;96484.56;30001;983;1876;-61
2022/09/03 00:53:22;;;;;;;;;;;;;;;16.30;55.61;96481.81;30001;983;1881;-61
2022/09/03 00:54:11;;;;;;;;;;;;;;;16.27;56.12;96483.31;30001;983;1872;-62
2022/09/03 00:54:50;;;;;;;;;;;;;;;16.28;55.76;96484.12;30001;982;1881;-60
2022/09/03 00:55:27;;;;;;;;;;;;;;;16.28;55.95;96482.19;30001;982;1877;-60
2022/09/03 00:56:06;;;;;;;;;;;;;;;16.29;55.84;96488.44;30001;982;1859;-59
2022/09/03 00:56:49;;;;;;;;;;;;;;;16.29;56.06;96483.75;30001;982;1872;-61
2022/09/03 00:57:38;;;;;;;;;;;;;;;16.29;55.64;96482.94;30001;982;1881;-61
2022/09/03 00:58:29;;;;;;;;;;;;;;;16.29;55.68;96483.75;30001;983;1867;-60
2022/09/03 00:59:18;;;;;;;;;;;;;;;16.29;55.75;96486.50;30001;983;1876;-60
2022/09/03 00:59:57;;;;;;;;;;;;;;;16.29;56.13;96488.44;30001;983;1876;-62
2022/09/03 01:00:28;;;;;;;;;;;;;;;16.28;55.41;96482.19;30001;983;1881;-61
2022/09/03 01:01:04;;;;;;;;;;;;;;;16.30;55.49;96488.09;30001;983;1855;-61
2022/09/03 01:01:42;;;;;;;;;;;;;;;16.29;55.45;96482.94;30001;983;1876;-60
2022/09/03 01:02:46;;;;;;;;;;;;;;;16.30;55.61;96492.75;30001;982;1877;-60
2022/09/03 01:03:22;;;;;;;;;;;;;;;16.31;55.04;96494.37;30001;982;1877;-61
2022/09/03 01:04:05;;;;;;;;;;;;;;;16.34;55.02;96480.00;30001;982;1877;-60
2022/09/03 01:05:14;;;;;;;;;;;;;;;16.38;54.60;96480.94;30001;982;1881;-60
2022/09/03 01:05:58;;;;;;;;;;;;;;;16.40;54.64;96478.66;30001;983;1872;-62
2022/09/03 01:06:51;;;;;;;;;;;;;;;16.41;54.85;96475.56;30001;973;1878;-62
2022/09/03 01:07:32;;;;;;;;;;;;;;;16.50;54.32;96480.94;30001;983;1867;-60
2022/09/03 01:08:32;;;;;;;;;;;;;;;16.52;54.01;96478.69;30001;983;1881;-60
2022/09/03 01:09:32;;;;;;;;;;;;;;;16.48;54.35;96472.28;30001;983;1872;-59
2022/09/03 01:10:15;;;;;;;;;;;;;;;16.45;54.28;96478.44;30001;982;1877;-63
2022/09/03 01:11:04;;;;;;;;;;;;;;;16.45;54.63;96472.94;30001;986;1877;-60
2022/09/03 01:11:50;;;;;;;;;;;;;;;16.42;54.63;96474.44;30001;982;1851;-63
2022/09/03 01:12:50;;;;;;;;;;;;;;;16.39;54.90;96477.84;30001;983;1786;-60
2022/09/03 01:13:36;;;;;;;;;;;;;;;16.36;54.86;96477.72;30001;983;1880;-60
2022/09/03 01:14:30;;;;;;;;;;;;;;;16.34;56.27;96490.94;30001;983;1876;-61
2022/09/03 01:15:20;;;;;;;;;;;;;;;16.30;55.70;96487.28;30001;983;1881;-60
2022/09/03 01:16:00;;;;;;;;;;;;;;;16.29;56.02;96485.69;30001;983;1876;-61
2022/09/03 01:16:54;;;;;;;;;;;;;;;16.28;56.30;96481.38;30001;970;1904;-61
2022/09/03 01:17:50;;;;;;;;;;;;;;;16.28;56.12;96486.84;30001;982;1850;-61
2022/09/03 01:18:27;;;;;;;;;;;;;;;16.27;56.27;96490.72;30001;982;1877;-60
2022/09/03 01:19:34;;;;;;;;;;;;;;;16.26;56.20;96487.19;30001;982;1877;-60
2022/09/03 01:20:22;;;;;;;;;;;;;;;16.24;56.06;96486.72;30001;957;1902;-62
2022/09/03 01:21:12;;;;;;;;;;;;;;;16.26;56.36;96489.13;30001;983;1876;-60
2022/09/03 01:22:04;;;;;;;;;;;;;;;16.26;56.02;96486.41;30001;983;1872;-61
2022/09/03 01:23:07;;;;;;;;;;;;;;;16.26;55.69;96489.13;30001;983;1850;-62
2022/09/03 01:24:01;;;;;;;;;;;;;;;16.26;55.71;96491.88;30001;983;1876;-60
2022/09/03 01:25:00;;;;;;;;;;;;;;;16.28;55.82;96492.34;30001;983;1872;-61
2022/09/03 01:25:49;;;;;;;;;;;;;;;16.27;55.29;96482.53;30001;982;1877;-60
2022/09/03 01:26:38;;;;;;;;;;;;;;;16.31;55.18;96477.94;30001;982;1868;-59
2022/09/03 01:27:26;;;;;;;;;;;;;;;16.31;55.13;96480.69;30001;983;1880;-60
2022/09/03 01:28:31;;;;;;;;;;;;;;;16.31;55.03;96483.41;30001;983;1854;-61
2022/09/03 01:29:22;;;;;;;;;;;;;;;16.30;55.33;96473.59;30001;983;1872;-59
2022/09/03 01:30:02;;;;;;;;;;;;;;;16.31;55.21;96483.41;30001;985;1872;-60
2022/09/03 01:30:37;;;;;;;;;;;;;;;16.31;55.05;96486.16;30001;983;1881;-60
2022/09/03 01:31:25;;;;;;;;;;;;;;;16.30;55.30;96474.41;30001;983;1855;-59
2022/09/03 01:32:19;;;;;;;;;;;;;;;16.31;55.29;96476.00;30001;982;1877;-63
2022/09/03 01:32:58;;;;;;;;;;;;;;;16.32;54.99;96472.13;30001;982;1872;-60
2022/09/03 01:33:49;;;;;;;;;;;;;;;16.31;54.96;96480.69;30001;982;1881;-59
2022/09/03 01:34:29;;;;;;;;;;;;;;;16.35;55.01;96476.12;30001;982;1872;-60
2022/09/03 01:35:25;;;;;;;;;;;;;;;16.35;54.84;96478.88;30001;983;1880;-60
2022/09/03 01:36:19;;;;;;;;;;;;;;;16.34;54.86;96477.25;30001;983;1876;-59
2022/09/03 01:37:13;;;;;;;;;;;;;;;16.32;55.27;96483.06;30001;983;1854;-61
2022/09/03 01:37:59;;;;;;;;;;;;;;;16.31;55.24;96477.94;30001;983;1872;-59
2022/09/03 01:38:50;;;;;;;;;;;;;;;16.28;55.41;96490.41;30001;983;1881;-60
2022/09/03 01:39:47;;;;;;;;;;;;;;;16.27;56.00;96485.25;30001;982;1877;-61
2022/09/03 01:40:41;;;;;;;;;;;;;;;16.25;55.76;96493.00;30001;982;1779;-59
2022/09/03 01:42:34;;;;;;;;;;;;;;;16.22;56.06;96488.22;30001;983;1859;-59
2022/09/03 01:43:23;;;;;;;;;;;;;;;16.22;56.00;96490.94;30001;983;1876;-59
2022/09/03 01:44:08;;;;;;;;;;;;;;;16.23;55.41;96489.81;30001;962;1897;-60
2022/09/03 01:45:06;;;;;;;;;;;;;;;16.22;55.75;96491.75;30001;983;1798;-58
2022/09/03 01:45:48;;;;;;;;;;;;;;;16.23;55.26;96490.59;30001;983;1881;-60
2022/09/03 01:46:23;;;;;;;;;;;;;;;16.25;55.48;96493.00;30001;983;1881;-60
2022/09/03 01:46:59;;;;;;;;;;;;;;;16.25;55.39;96498.50;30001;982;1885;-60
2022/09/03 01:47:49;;;;;;;;;;;;;;;16.24;55.24;96491.41;30001;982;1859;-59
2022/09/03 01:48:45;;;;;;;;;;;;;;;16.22;55.35;96493.69;30001;982;1881;-61
2022/09/03 01:49:23;;;;;;;;;;;;;;;16.21;55.40;96489.34;30001;982;1877;-60
2022/09/03 01:50:20;;;;;;;;;;;;;;;16.25;55.42;96487.53;30001;983;1885;-60
2022/09/03 01:51:10;;;;;;;;;;;;;;;16.27;55.44;96490.72;30001;983;1876;-60
2022/09/03 01:51:42;;;;;;;;;;;;;;;16.25;55.17;96490.28;30001;983;1881;-59
2022/09/03 01:52:18;;;;;;;;;;;;;;;16.25;55.28;96493.81;30001;983;1881;-59
2022/09/03 01:53:11;;;;;;;;;;;;;;;16.23;55.33;96490.59;30001;983;1863;-60
2022/09/03 01:54:02;;;;;;;;;;;;;;;16.23;55.50;96489.81;30001;983;1872;-59
2022/09/03 01:54:57;;;;;;;;;;;;;;;16.22;55.52;96488.22;30001;982;1855;-61
2022/09/03 01:55:32;;;;;;;;;;;;;;;16.22;55.47;96488.22;30001;982;1872;-60
2022/09/03 01:56:22;;;;;;;;;;;;;;;16.26;55.28;96487.19;30001;982;1886;-60
2022/09/03 01:57:13;;;;;;;;;;;;;;;16.27;55.45;96485.25;30001;982;1872;-59
2022/09/03 01:57:55;;;;;;;;;;;;;;;16.27;55.32;96491.53;30001;983;1880;-59
2022/09/03 01:58:30;;;;;;;;;;;;;;;16.28;55.07;96486.84;30001;983;1881;-60
2022/09/03 01:59:24;;;;;;;;;;;;;;;16.29;55.08;96488.44;30001;983;1885;-60
2022/09/03 02:00:00;;;;;;;;;;;;;;;16.26;55.22;96489.94;30001;983;1854;-60
2022/09/03 02:00:33;;;;;;;;;;;;;;;16.23;55.17;96487.87;30001;983;1881;-61
2022/09/03 02:01:08;;;;;;;;;;;;;;;16.21;55.29;96489.34;30001;983;1859;-59
2022/09/03 02:01:42;;;;;;;;;;;;;;;16.22;55.64;96493.69;30001;982;1881;-61
2022/09/03 02:02:20;;;;;;;;;;;;;;;16.21;55.64;96494.81;30001;982;1881;-61
2022/09/03 02:02:51;;;;;;;;;;;;;;;16.21;55.81;96492.09;30001;982;1864;-62
2022/09/03 02:03:23;;;;;;;;;;;;;;;16.20;55.66;96491.28;30001;982;1877;-59
2022/09/03 02:03:58;;;;;;;;;;;;;;;16.19;55.90;96491.62;30001;982;1886;-59
2022/09/03 02:04:30;;;;;;;;;;;;;;;16.23;55.78;96490.59;30001;983;1880;-59
2022/09/03 02:05:24;;;;;;;;;;;;;;;16.24;55.46;96485.94;30001;983;1885;-59
2022/09/03 02:05:55;;;;;;;;;;;;;;;16.24;55.42;96488.66;30001;983;1876;-60
2022/09/03 02:06:30;;;;;;;;;;;;;;;16.25;55.33;96493.00;30001;987;1877;-59
2022/09/03 02:07:02;;;;;;;;;;;;;;;16.24;55.54;96494.16;30001;983;1863;-60
2022/09/03 02:07:36;;;;;;;;;;;;;;;16.23;55.50;96495.28;30001;983;1876;-60
2022/09/03 02:08:08;;;;;;;;;;;;;;;16.21;55.66;96492.88;30001;983;1885;-60
2022/09/03 02:08:40;;;;;;;;;;;;;;;16.20;55.41;96495.97;30001;983;1881;-60
2022/09/03 02:09:11;;;;;;;;;;;;;;;16.20;55.76;96495.97;30001;982;1885;-61
2022/09/03 02:09:43;;;;;;;;;;;;;;;16.18;55.78;96492.75;30001;982;1881;-60
2022/09/03 02:10:16;;;;;;;;;;;;;;;16.18;55.58;96495.50;30001;982;1886;-60
2022/09/03 02:10:52;;;;;;;;;;;;;;;16.16;55.72;96493.09;30001;982;1859;-60
2022/09/03 02:11:23;;;;;;;;;;;;;;;16.18;55.61;96492.75;30001;982;1881;-59
2022/09/03 02:11:59;;;;;;;;;;;;;;;16.19;55.47;96494.34;30001;983;1880;-59
2022/09/03 02:12:32;;;;;;;;;;;;;;;16.21;55.80;96492.09;30001;983;1884;-59
2022/09/03 02:13:09;;;;;;;;;;;;;;;16.19;55.47;96488.88;30001;983;1880;-60
2022/09/03 02:13:42;;;;;;;;;;;;;;;16.18;55.91;96493.56;30001;983;1885;-60
2022/09/03 02:14:13;;;;;;;;;;;;;;;16.18;55.65;96488.09;30001;983;1880;-59
2022/09/03 02:14:46;;;;;;;;;;;;;;;16.19;55.83;96492.41;30001;983;1885;-60
2022/09/03 02:15:19;;;;;;;;;;;;;;;16.18;55.43;96498.22;30001;983;1881;-60
2022/09/03 02:15:51;;;;;;;;;;;;;;;16.17;55.52;96491.97;30001;983;1863;-59
2022/09/03 02:16:24;;;;;;;;;;;;;;;16.22;55.40;96499.16;30001;983;1876;-59
2022/09/03 02:16:57;;;;;;;;;;;;;;;16.30;55.49;96493.56;30001;982;1885;-59
2022/09/03 02:17:28;;;;;;;;;;;;;;;16.28;55.36;96492.34;30001;982;1881;-60
2022/09/03 02:18:01;;;;;;;;;;;;;;;16.24;55.49;96494.16;30001;982;1885;-60
2022/09/03 02:18:35;;;;;;;;;;;;;;;16.22;55.41;96497.22;30001;982;1881;-58
2022/09/03 02:19:09;;;;;;;;;;;;;;;16.22;55.66;96493.69;30001;983;1884;-59
2022/09/03 02:19:40;;;;;;;;;;;;;;;16.20;55.54;96501.44;30001;983;1880;-60
2022/09/03 02:20:15;;;;;;;;;;;;;;;16.20;55.52;96501.44;30001;983;1885;-59
2022/09/03 02:20:46;;;;;;;;;;;;;;;16.16;55.61;96500.50;30001;983;1881;-59
2022/09/03 02:21:19;;;;;;;;;;;;;;;16.17;56.00;96504.84;30001;983;1863;-62
2022/09/03 02:21:52;;;;;;;;;;;;;;;16.15;55.75;96504.38;30001;983;1876;-59
2022/09/03 02:22:23;;;;;;;;;;;;;;;16.16;56.07;96505.97;30001;983;1885;-60
2022/09/03 02:22:55;;;;;;;;;;;;;;;16.12;56.01;96502.31;30001;983;1881;-59
2022/09/03 02:23:26;;;;;;;;;;;;;;;16.11;56.08;96497.97;30001;982;1885;-59
2022/09/03 02:23:57;;;;;;;;;;;;;;;16.15;55.75;96501.66;30001;982;1881;-60
2022/09/03 02:24:28;;;;;;;;;;;;;;;16.15;56.04;96499.72;30002;815;1014;-60
2022/09/03 02:24:59;;;;;;;;;;;;;;;16.14;55.94;96502.78;30001;982;1881;-60
2022/09/03 02:25:51;;;;;;;;;;;;;;;16.11;55.87;96508.94;30001;982;1885;-60
2022/09/03 02:26:23;;;;;;;;;;;;;;;16.14;55.93;96503.59;30001;982;1859;-58
2022/09/03 02:26:54;;;;;;;;;;;;;;;16.14;55.82;96513.72;30001;983;1796;-58
2022/09/03 02:27:26;;;;;;;;;;;;;;;16.17;55.99;96507.59;30001;983;1880;-59
2022/09/03 02:27:58;;;;;;;;;;;;;;;16.17;56.05;96507.59;30001;983;1863;-59
2022/09/03 02:28:30;;;;;;;;;;;;;;;16.16;56.02;96505.97;30001;983;1876;-58
2022/09/03 02:29:02;;;;;;;;;;;;;;;16.11;55.77;96504.25;30001;983;1885;-59
2022/09/03 02:29:33;;;;;;;;;;;;;;;16.09;55.98;96503.78;30001;983;1881;-60
2022/09/03 02:30:04;;;;;;;;;;;;;;;16.11;56.05;96503.44;30001;983;1885;-60
2022/09/03 02:30:35;;;;;;;;;;;;;;;16.08;56.36;96502.19;30001;983;1880;-59
2022/09/03 02:31:06;;;;;;;;;;;;;;;16.06;56.39;96497.06;30001;982;1885;-59
2022/09/03 02:31:36;;;;;;;;;;;;;;;16.05;56.37;96498.19;30001;982;1881;-59
2022/09/03 02:32:07;;;;;;;;;;;;;;;16.05;56.09;96503.66;30001;984;1885;-59
2022/09/03 02:32:38;;;;;;;;;;;;;;;16.06;56.34;96502.53;30001;982;1881;-60
2022/09/03 02:33:09;;;;;;;;;;;;;;;16.04;56.41;96499.31;30001;982;1863;-60
2022/09/03 02:33:42;;;;;;;;;;;;;;;16.03;56.37;96496.91;30001;982;1840;-60
2022/09/03 02:34:13;;;;;;;;;;;;;;;16.02;56.45;96501.59;30001;983;1885;-60
2022/09/03 02:34:45;;;;;;;;;;;;;;;16.01;56.31;96500.00;30001;983;1858;-59
2022/09/03 02:35:16;;;;;;;;;;;;;;;16.00;56.42;96500.34;30001;983;1880;-61
2022/09/03 02:35:48;;;;;;;;;;;;;;;15.99;56.67;96502.28;30001;983;1881;-60
2022/09/03 02:36:20;;;;;;;;;;;;;;;15.99;56.84;96501.47;30001;983;1885;-59
2022/09/03 02:36:51;;;;;;;;;;;;;;;15.98;56.66;96497.94;30001;983;1881;-59
2022/09/03 02:37:22;;;;;;;;;;;;;;;15.98;56.59;96500.66;30001;983;1885;-59
2022/09/03 02:37:53;;;;;;;;;;;;;;;15.98;56.84;96500.66;30001;983;1881;-60
2022/09/03 02:38:25;;;;;;;;;;;;;;;15.99;56.71;96501.47;30001;982;1885;-60
2022/09/03 02:38:56;;;;;;;;;;;;;;;15.97;56.83;96501.00;30001;982;1881;-59
2022/09/03 02:39:27;;;;;;;;;;;;;;;15.95;56.54;96500.53;30001;982;1885;-59
2022/09/03 02:39:58;;;;;;;;;;;;;;;15.96;56.69;96502.94;30001;982;1859;-60
2022/09/03 02:40:30;;;;;;;;;;;;;;;15.96;56.62;96500.19;30001;982;1881;-58
2022/09/03 02:41:00;;;;;;;;;;;;;;;15.95;57.01;96501.34;30001;982;1881;-60
2022/09/03 02:41:32;;;;;;;;;;;;;;;15.95;56.93;96501.34;30001;982;1864;-59
2022/09/03 02:42:03;;;;;;;;;;;;;;;15.98;56.99;96506.12;30001;983;1876;-61
2022/09/03 02:42:35;;;;;;;;;;;;;;;15.98;56.92;96506.12;30001;983;1885;-59
2022/09/03 02:43:09;;;;;;;;;;;;;;;15.98;56.68;96506.12;30001;983;1799;-60
2022/09/03 02:43:44;;;;;;;;;;;;;;;15.95;56.73;96500.53;30001;983;1885;-59
2022/09/03 02:44:33;;;;;;;;;;;;;;;15.93;56.81;96506.38;30001;983;1859;-60
2022/09/03 02:45:23;;;;;;;;;;;;;;;15.92;57.28;96496.56;30001;983;1854;-60
2022/09/03 02:45:59;;;;;;;;;;;;;;;15.91;57.32;96500.44;30001;983;1785;-59
2022/09/03 02:46:43;;;;;;;;;;;;;;;15.89;57.22;96497.25;30001;982;1885;-59
2022/09/03 02:47:14;;;;;;;;;;;;;;;15.87;57.40;96494.03;30001;982;1881;-60
2022/09/03 02:47:48;;;;;;;;;;;;;;;15.85;57.30;96499.03;30001;982;1886;-60
2022/09/03 02:48:21;;;;;;;;;;;;;;;15.84;57.19;96497.44;30001;982;1881;-59
2022/09/03 02:48:56;;;;;;;;;;;;;;;15.84;57.74;96499.38;30001;982;1821;-60
2022/09/03 02:49:28;;;;;;;;;;;;;;;15.83;57.70;96501.31;30001;983;1880;-60
2022/09/03 02:49:59;;;;;;;;;;;;;;;15.83;57.89;96498.56;30001;983;1863;-59
2022/09/03 02:50:30;;;;;;;;;;;;;;;15.83;57.87;96498.56;30001;983;1876;-60
2022/09/03 02:51:01;;;;;;;;;;;;;;;15.81;57.80;96500.84;30001;983;1885;-60
2022/09/03 02:51:34;;;;;;;;;;;;;;;15.80;57.83;96501.97;30001;983;1880;-61
2022/09/03 02:52:08;;;;;;;;;;;;;;;15.78;57.74;96498.78;30001;983;1885;-60
2022/09/03 02:52:39;;;;;;;;;;;;;;;15.79;57.77;96497.66;30001;983;1881;-60
2022/09/03 02:53:11;;;;;;;;;;;;;;;15.79;57.75;96502.31;30001;983;1885;-59
2022/09/03 02:53:42;;;;;;;;;;;;;;;15.83;57.89;96497.78;30001;982;1881;-60
2022/09/03 02:54:13;;;;;;;;;;;;;;;15.82;57.71;96496.97;30001;982;1885;-60
2022/09/03 02:54:44;;;;;;;;;;;;;;;15.84;57.79;96500.19;30001;982;1881;-59
2022/09/03 02:55:16;;;;;;;;;;;;;;;15.83;57.92;96498.56;30001;982;1864;-60
2022/09/03 02:55:47;;;;;;;;;;;;;;;15.82;57.71;96491.50;30002;800;1015;-59
2022/09/03 02:56:18;;;;;;;;;;;;;;;15.81;57.98;96495.37;30001;983;1884;-60
2022/09/03 02:56:50;;;;;;;;;;;;;;;15.81;57.94;96494.56;30001;983;1880;-59
2022/09/03 02:57:21;;;;;;;;;;;;;;;15.81;58.28;96489.91;30001;983;1885;-60
2022/09/03 02:57:52;;;;;;;;;;;;;;;15.81;57.84;96495.37;30001;983;1880;-59
2022/09/03 02:58:23;;;;;;;;;;;;;;;15.83;58.20;96493.09;30001;983;1885;-60
2022/09/03 02:58:54;;;;;;;;;;;;;;;15.82;58.31;96496.97;30001;983;1880;-60
2022/09/03 02:59:27;;;;;;;;;;;;;;;15.82;58.10;96490.69;30001;983;1885;-59
2022/09/03 02:59:58;;;;;;;;;;;;;;;15.81;58.33;96500.84;30001;983;1881;-60
2022/09/03 03:00:29;;;;;;;;;;;;;;;15.79;58.36;96494.91;30001;983;1863;-60
2022/09/03 03:01:00;;;;;;;;;;;;;;;15.80;58.45;96503.91;30001;983;1876;-61
2022/09/03 03:01:31;;;;;;;;;;;;;;;15.78;58.41;96495.25;30001;982;1885;-61
2022/09/03 03:02:02;;;;;;;;;;;;;;;15.81;58.52;96495.37;30001;982;1881;-60
2022/09/03 03:02:34;;;;;;;;;;;;;;;15.83;58.38;96498.56;30001;982;1885;-60
2022/09/03 03:03:05;;;;;;;;;;;;;;;15.84;58.37;96494.69;30001;982;1881;-59
2022/09/03 03:03:36;;;;;;;;;;;;;;;15.88;58.34;96506.56;30001;983;1884;-59
2022/09/03 03:04:06;;;;;;;;;;;;;;;15.86;58.41;96497.91;30001;983;1880;-60
2022/09/03 03:04:38;;;;;;;;;;;;;;;15.83;58.41;96498.56;30001;983;1885;-59
2022/09/03 03:05:14;;;;;;;;;;;;;;;15.81;58.29;96497.31;30001;983;1880;-58
2022/09/03 03:05:49;;;;;;;;;;;;;;;15.82;58.37;96502.44;30001;983;1863;-58
2022/09/03 03:06:20;;;;;;;;;;;;;;;15.80;58.52;96504.72;30001;983;1876;-58
2022/09/03 03:06:51;;;;;;;;;;;;;;;15.80;58.25;96503.91;30001;983;1824;-58
2022/09/03 03:07:22;;;;;;;;;;;;;;;15.79;58.32;96499.56;30001;983;1859;-59
2022/09/03 03:07:57;;;;;;;;;;;;;;;15.77;58.56;96502.66;30001;983;1881;-59
2022/09/03 03:08:29;;;;;;;;;;;;;;;15.82;58.34;96504.38;30001;983;1881;-60
2022/09/03 03:09:04;;;;;;;;;;;;;;;15.82;58.31;96504.38;30001;982;1885;-59
2022/09/03 03:09:35;;;;;;;;;;;;;;;15.81;58.60;96506.31;30001;982;1881;-59
2022/09/03 03:10:07;;;;;;;;;;;;;;;15.81;58.45;96495.37;30001;982;1885;-60
2022/09/03 03:10:39;;;;;;;;;;;;;;;15.80;58.31;96504.72;30001;982;1796;-60
2022/09/03 03:11:10;;;;;;;;;;;;;;;15.78;58.48;96490.56;30001;983;1884;-59
2022/09/03 03:11:41;;;;;;;;;;;;;;;15.79;58.53;96497.66;30001;983;1880;-59
2022/09/03 03:12:12;;;;;;;;;;;;;;;15.82;58.61;96499.72;30001;983;1885;-59
2022/09/03 03:12:43;;;;;;;;;;;;;;;15.82;58.44;96496.97;30001;983;1859;-60
2022/09/03 03:13:15;;;;;;;;;;;;;;;15.81;58.60;96497.31;30001;983;1881;-59
2022/09/03 03:13:46;;;;;;;;;;;;;;;15.79;58.59;96494.09;30001;983;1881;-59
2022/09/03 03:14:17;;;;;;;;;;;;;;;15.82;58.68;96502.44;30001;983;1885;-58
2022/09/03 03:14:48;;;;;;;;;;;;;;;15.81;58.47;96500.03;30001;983;1881;-59
2022/09/03 03:15:19;;;;;;;;;;;;;;;15.78;58.64;96503.44;30001;983;1863;-60
2022/09/03 03:15:50;;;;;;;;;;;;;;;15.75;58.66;96502.97;30001;983;1877;-59
2022/09/03 03:16:21;;;;;;;;;;;;;;;15.77;58.63;96505.38;30001;982;1885;-59
2022/09/03 03:16:52;;;;;;;;;;;;;;;15.75;58.41;96507.66;30001;982;1881;-60
2022/09/03 03:17:25;;;;;;;;;;;;;;;15.74;58.70;96506.06;30001;982;1885;-60
2022/09/03 03:17:57;;;;;;;;;;;;;;;15.73;58.88;96504.44;30001;982;1881;-60
2022/09/03 03:18:28;;;;;;;;;;;;;;;15.72;58.83;96508.31;30001;964;1904;-59
2022/09/03 03:18:59;;;;;;;;;;;;;;;15.70;58.81;96511.38;30001;983;1880;-59
2022/09/03 03:19:30;;;;;;;;;;;;;;;15.72;59.10;96508.31;30001;983;1863;-59
2022/09/03 03:20:01;;;;;;;;;;;;;;;15.71;59.29;96509.44;30001;983;1876;-59
2022/09/03 03:20:33;;;;;;;;;;;;;;;15.68;59.27;96507.38;30001;983;1885;-60
2022/09/03 03:21:09;;;;;;;;;;;;;;;15.68;59.10;96501.91;30001;968;1896;-59
2022/09/03 03:21:40;;;;;;;;;;;;;;;15.67;59.30;96508.53;30001;983;1863;-60
2022/09/03 03:22:14;;;;;;;;;;;;;;;15.67;59.38;96505.78;30001;983;1877;-60
2022/09/03 03:22:45;;;;;;;;;;;;;;;15.65;59.08;96508.06;30001;983;1885;-60
2022/09/03 03:23:16;;;;;;;;;;;;;;;15.63;59.33;96515.78;30001;983;1881;-60
2022/09/03 03:23:47;;;;;;;;;;;;;;;15.61;59.17;96512.59;30001;982;1864;-60
2022/09/03 03:24:18;;;;;;;;;;;;;;;15.59;59.18;96514.88;30001;982;1877;-60
2022/09/03 03:24:49;;;;;;;;;;;;;;;15.57;60.14;96517.16;30001;982;1886;-60
2022/09/03 03:25:20;;;;;;;;;;;;;;;15.54;59.80;96515.84;30001;982;1881;-60
2022/09/03 03:25:51;;;;;;;;;;;;;;;15.53;59.85;96510.72;30001;982;1886;-59